Time;durP1;ratioP1;P1;durP2;ratioP2;P2;SDS_P1;SDS_P2;PMS_P1;PMS_P2;Temp;Humidity;BMP_temperature;BMP_pressure;BME280_temperature;BME280_humidity;BME280_pressure;Samples;Min_cycle;Max_cycle;Signal;HPM_P1;HPM_P2
2022/08/31 00:05:56;;;;;;;2.25;0.30;;;16.60;93.40;;;;;;5070903;28;20074;-70
2022/08/31 00:08:22;;;;;;;0.90;0.40;;;16.50;93.20;;;;;;5071713;28;20077;-70
2022/08/31 00:10:48;;;;;;;1.50;0.40;;;16.50;93.10;;;;;;5087834;28;20045;-69
2022/08/31 00:13:14;;;;;;;3.65;0.30;;;16.50;92.80;;;;;;5084925;28;20036;-69
2022/08/31 00:15:41;;;;;;;2.08;0.30;;;16.50;92.50;;;;;;5068940;28;20032;-69
2022/08/31 00:18:07;;;;;;;1.13;0.30;;;16.40;92.20;;;;;;5089264;28;20035;-70
2022/08/31 00:20:34;;;;;;;1.67;0.20;;;16.40;92.10;;;;;;5082075;28;20044;-69
2022/08/31 00:23:03;;;;;;;2.42;0.20;;;16.40;91.90;;;;;;5091361;28;20043;-69
2022/08/31 00:25:29;;;;;;;0.93;0.30;;;16.40;91.70;;;;;;5077097;28;20362;-69
2022/08/31 00:27:55;;;;;;;1.95;0.30;;;16.40;91.10;;;;;;5086073;28;20234;-69
2022/08/31 00:30:22;;;;;;;0.50;0.20;;;16.30;90.80;;;;;;5073319;28;20110;-69
2022/08/31 00:32:47;;;;;;;0.50;0.20;;;16.30;90.30;;;;;;5083274;28;20048;-69
2022/08/31 00:35:13;;;;;;;0.73;0.20;;;16.30;90.20;;;;;;5072294;28;20373;-69
2022/08/31 00:37:39;;;;;;;0.77;0.20;;;16.30;89.80;;;;;;5073746;28;20538;-69
2022/08/31 00:40:05;;;;;;;3.30;0.30;;;16.30;89.40;;;;;;5076177;28;20451;-69
2022/08/31 00:42:31;;;;;;;1.00;0.20;;;16.20;89.00;;;;;;5070908;28;20396;-69
2022/08/31 00:44:57;;;;;;;1.20;0.20;;;16.20;88.20;;;;;;5073818;28;20055;-69
2022/08/31 00:47:23;;;;;;;0.43;0.20;;;16.20;87.90;;;;;;5071865;28;20423;-70
2022/08/31 00:49:50;;;;;;;1.40;0.30;;;16.10;87.90;;;;;;5073481;28;20043;-69
2022/08/31 00:52:34;;;;;;;1.10;0.20;;;16.10;87.80;;;;;;5087287;28;20044;-69
2022/08/31 00:55:07;;;;;;;1.65;0.30;;;16.10;87.10;;;;;;5085198;28;20098;-69
2022/08/31 00:57:38;;;;;;;1.65;0.30;;;16.10;86.90;;;;;;5088048;28;20050;-69
2022/08/31 01:00:07;;;;;;;2.25;0.40;;;16.10;86.50;;;;;;5070786;28;20140;-69
2022/08/31 01:02:33;;;;;;;1.65;0.20;;;16.10;85.90;;;;;;5068196;28;20039;-69
2022/08/31 01:04:59;;;;;;;0.65;0.35;;;16.10;86.30;;;;;;5071436;28;20703;-69
2022/08/31 01:07:26;;;;;;;1.85;0.30;;;16.00;85.80;;;;;;5057813;28;20049;-70
2022/08/31 01:09:53;;;;;;;3.00;0.30;;;16.00;85.50;;;;;;5074017;28;20048;-69
2022/08/31 01:12:19;;;;;;;2.63;0.30;;;16.00;85.30;;;;;;5089327;28;20171;-69
2022/08/31 01:14:45;;;;;;;8.20;0.35;;;16.00;85.00;;;;;;5071391;28;20068;-69
2022/08/31 01:17:11;;;;;;;1.02;0.30;;;16.00;85.30;;;;;;5072849;28;20488;-69
2022/08/31 01:20:01;;;;;;;3.50;0.10;;;15.90;85.20;;;;;;5087528;28;20462;-69
2022/08/31 01:22:50;;;;;;;1.95;0.20;;;15.90;85.40;;;;;;5085569;28;20128;-69
2022/08/31 01:25:17;;;;;;;0.95;0.30;;;15.80;85.50;;;;;;5063271;28;20106;-69
2022/08/31 01:27:43;;;;;;;2.78;0.20;;;15.80;85.70;;;;;;5086962;28;20051;-69
2022/08/31 01:30:12;;;;;;;0.77;0.10;;;15.70;85.80;;;;;;5085723;28;20058;-69
2022/08/31 01:32:39;;;;;;;0.60;0.20;;;15.70;85.80;;;;;;5072986;28;20028;-69
2022/08/31 01:35:06;;;;;;;0.85;0.30;;;15.70;86.20;;;;;;5069428;28;20049;-69
2022/08/31 01:37:32;;;;;;;0.90;0.30;;;15.60;86.30;;;;;;5068935;28;20045;-69
2022/08/31 01:39:58;;;;;;;0.20;0.10;;;15.60;86.20;;;;;;5061465;28;20044;-69
2022/08/31 01:42:24;;;;;;;1.90;0.30;;;15.60;86.70;;;;;;5071556;28;20359;-69
2022/08/31 01:44:50;;;;;;;1.85;0.15;;;15.50;86.50;;;;;;5056223;28;20088;-69
2022/08/31 01:47:16;;;;;;;1.55;0.20;;;15.50;86.80;;;;;;5075888;28;20068;-69
2022/08/31 01:49:41;;;;;;;1.17;0.17;;;15.40;87.00;;;;;;5068393;28;20091;-69
2022/08/31 01:52:07;;;;;;;0.60;0.30;;;15.40;87.00;;;;;;5072558;28;20438;-69
2022/08/31 01:54:33;;;;;;;1.67;0.10;;;15.30;86.90;;;;;;5072467;28;20045;-69
2022/08/31 01:57:00;;;;;;;2.22;0.20;;;15.30;87.10;;;;;;5072880;28;20068;-69
2022/08/31 01:59:27;;;;;;;0.63;0.20;;;15.30;87.00;;;;;;5066234;28;20040;-69
2022/08/31 02:01:54;;;;;;;1.02;0.30;;;15.30;86.90;;;;;;5069192;28;20071;-69
2022/08/31 02:04:23;;;;;;;2.78;0.20;;;15.20;86.90;;;;;;5063593;28;20063;-70
2022/08/31 02:06:51;;;;;;;0.90;0.20;;;15.20;86.90;;;;;;5068239;28;20048;-69
2022/08/31 02:09:17;;;;;;;1.48;0.20;;;15.20;87.10;;;;;;5084343;28;20036;-70
2022/08/31 02:11:43;;;;;;;1.13;0.20;;;15.10;87.10;;;;;;5070656;28;20049;-70
2022/08/31 02:14:09;;;;;;;1.02;0.30;;;15.10;87.40;;;;;;5068802;28;20036;-70
2022/08/31 02:16:36;;;;;;;0.70;0.10;;;15.00;87.50;;;;;;5074756;28;20041;-69
2022/08/31 02:19:02;;;;;;;0.50;0.20;;;15.00;87.70;;;;;;5088716;28;20040;-69
2022/08/31 02:21:28;;;;;;;0.10;0.10;;;14.90;87.70;;;;;;5074876;28;20633;-69
2022/08/31 02:23:54;;;;;;;0.47;0.20;;;14.90;87.70;;;;;;5075123;28;20043;-69
2022/08/31 02:26:20;;;;;;;0.50;0.17;;;14.90;87.60;;;;;;5063521;28;20442;-69
2022/08/31 02:28:46;;;;;;;0.47;0.20;;;14.70;87.50;;;;;;5076397;28;20085;-69
2022/08/31 02:31:11;;;;;;;0.60;0.20;;;14.70;87.60;;;;;;5077221;28;20043;-69
2022/08/31 02:33:37;;;;;;;1.33;0.10;;;14.70;87.60;;;;;;5072584;28;20036;-69
2022/08/31 02:36:04;;;;;;;1.88;0.20;;;14.60;87.70;;;;;;5090668;28;20032;-68
2022/08/31 02:38:31;;;;;;;1.70;0.20;;;14.60;87.90;;;;;;5072068;28;20631;-69
2022/08/31 02:40:57;;;;;;;1.85;0.20;;;14.60;87.90;;;;;;5071332;28;20119;-69
2022/08/31 02:43:23;;;;;;;0.38;0.15;;;14.50;88.30;;;;;;5080320;28;20550;-69
2022/08/31 02:45:48;;;;;;;0.65;0.20;;;14.50;88.70;;;;;;5076209;28;20048;-69
2022/08/31 02:48:14;;;;;;;0.43;0.00;;;14.40;89.00;;;;;;5074420;28;20048;-69
2022/08/31 02:50:47;;;;;;;0.32;0.20;;;14.30;89.20;;;;;;5077156;28;20047;-69
2022/08/31 02:53:15;;;;;;;0.50;0.10;;;14.30;89.40;;;;;;5073367;28;20519;-69
2022/08/31 02:55:41;;;;;;;0.45;0.10;;;14.20;89.70;;;;;;5071941;28;20036;-69
2022/08/31 02:58:08;;;;;;;0.82;0.13;;;14.20;90.10;;;;;;5055164;28;20048;-69
2022/08/31 03:00:35;;;;;;;0.35;0.10;;;14.10;90.20;;;;;;5090322;28;20127;-69
2022/08/31 03:03:01;;;;;;;0.43;0.10;;;14.10;90.50;;;;;;5087965;28;20403;-69
2022/08/31 03:05:27;;;;;;;1.08;0.20;;;14.00;90.70;;;;;;5074957;28;20036;-69
2022/08/31 03:07:53;;;;;;;0.30;0.10;;;14.00;90.90;;;;;;5091652;28;20710;-69
2022/08/31 03:10:21;;;;;;;0.60;0.20;;;13.90;91.30;;;;;;5074835;28;20036;-69
2022/08/31 03:12:48;;;;;;;2.00;0.20;;;13.80;91.50;;;;;;5082643;28;20079;-69
2022/08/31 03:15:15;;;;;;;2.88;0.15;;;13.80;91.90;;;;;;5072966;28;20094;-69
2022/08/31 03:17:41;;;;;;;1.80;0.30;;;13.70;92.10;;;;;;5073094;28;20039;-69
2022/08/31 03:20:08;;;;;;;0.90;0.20;;;13.70;92.60;;;;;;5073204;28;20068;-69
2022/08/31 03:22:34;;;;;;;2.67;0.40;;;13.60;93.00;;;;;;5063439;28;20044;-69
2022/08/31 03:25:00;;;;;;;1.10;0.20;;;13.60;93.40;;;;;;5074562;28;20036;-69
2022/08/31 03:27:29;;;;;;;2.75;0.30;;;13.50;94.40;;;;;;5071474;28;20121;-69
2022/08/31 03:29:55;;;;;;;1.33;0.30;;;13.40;95.00;;;;;;5091052;28;20036;-69
2022/08/31 03:32:21;;;;;;;1.00;0.20;;;13.40;95.40;;;;;;5070668;28;20073;-69
2022/08/31 03:34:47;;;;;;;0.52;0.15;;;13.30;96.10;;;;;;5069280;28;20076;-68
2022/08/31 03:37:13;;;;;;;1.48;0.28;;;13.30;96.40;;;;;;5068290;28;20054;-69
2022/08/31 03:39:38;;;;;;;0.50;0.30;;;13.30;97.20;;;;;;5071840;28;20075;-69
2022/08/31 03:42:07;;;;;;;0.68;0.30;;;13.20;97.50;;;;;;5087540;28;20093;-69
2022/08/31 03:44:33;;;;;;;0.88;0.20;;;13.20;98.20;;;;;;5080104;28;20044;-69
2022/08/31 03:46:59;;;;;;;0.50;0.20;;;13.20;98.60;;;;;;5071910;28;20102;-69
2022/08/31 03:49:25;;;;;;;1.52;0.28;;;13.20;98.90;;;;;;5061785;28;20048;-69
2022/08/31 03:51:52;;;;;;;1.75;0.20;;;13.10;99.00;;;;;;5077935;28;20047;-68
2022/08/31 03:54:18;;;;;;;2.38;0.25;;;13.00;99.70;;;;;;5065674;28;20488;-69
2022/08/31 03:56:45;;;;;;;0.80;0.22;;;13.10;99.90;;;;;;5077901;28;20040;-69
2022/08/31 03:59:11;;;;;;;2.45;0.22;;;13.00;99.90;;;;;;5089341;28;20040;-68
2022/08/31 04:01:37;;;;;;;0.70;0.30;;;13.00;99.90;;;;;;5092600;28;20032;-69
2022/08/31 04:04:03;;;;;;;1.25;0.50;;;13.00;99.90;;;;;;5070237;28;20480;-69
2022/08/31 04:06:29;;;;;;;1.05;0.50;;;13.00;99.90;;;;;;5069001;28;20051;-69
2022/08/31 04:08:55;;;;;;;0.30;0.20;;;13.00;99.90;;;;;;5064939;28;20074;-69
2022/08/31 04:11:22;;;;;;;1.23;0.50;;;12.90;99.90;;;;;;5094376;28;20048;-69
2022/08/31 04:13:47;;;;;;;1.27;0.28;;;12.90;99.90;;;;;;5084124;28;20040;-69
2022/08/31 04:16:17;;;;;;;1.80;0.38;;;12.90;99.90;;;;;;5076659;28;20036;-69
2022/08/31 04:18:45;;;;;;;1.08;0.30;;;12.90;99.90;;;;;;5065071;28;20534;-69
2022/08/31 04:21:18;;;;;;;1.05;0.30;;;12.80;99.90;;;;;;5093204;28;20031;-69
2022/08/31 04:23:45;;;;;;;1.23;0.20;;;12.80;99.90;;;;;;5068184;28;20044;-68
2022/08/31 04:26:16;;;;;;;1.83;0.35;;;12.80;99.90;;;;;;5071580;28;20047;-69
2022/08/31 04:28:42;;;;;;;0.68;0.30;;;12.70;99.90;;;;;;5068707;28;20503;-69
2022/08/31 04:31:07;;;;;;;0.80;0.22;;;12.70;99.90;;;;;;5071500;28;20064;-69
2022/08/31 04:33:38;;;;;;;3.38;0.47;;;12.70;99.90;;;;;;5083282;28;20483;-69
2022/08/31 04:36:08;;;;;;;0.60;0.30;;;12.70;99.90;;;;;;5064760;28;20087;-69
2022/08/31 04:38:35;;;;;;;1.45;0.30;;;12.70;99.90;;;;;;5064907;28;20049;-69
2022/08/31 04:41:07;;;;;;;0.65;0.13;;;12.70;99.90;;;;;;5070961;28;20044;-69
2022/08/31 04:43:33;;;;;;;1.52;0.30;;;12.70;99.90;;;;;;5067238;28;20028;-71
2022/08/31 04:45:58;;;;;;;1.40;0.43;;;12.70;99.90;;;;;;5072846;28;20163;-68
2022/08/31 04:48:24;;;;;;;1.63;0.20;;;12.70;99.90;;;;;;5056387;28;20510;-68
2022/08/31 04:50:50;;;;;;;2.65;0.45;;;12.70;99.90;;;;;;5070344;28;20047;-69
2022/08/31 04:53:16;;;;;;;1.05;0.35;;;12.60;99.90;;;;;;5085108;28;20114;-69
2022/08/31 04:55:42;;;;;;;0.88;0.20;;;12.60;99.90;;;;;;5089905;28;20391;-69
2022/08/31 04:58:08;;;;;;;2.08;0.30;;;12.60;99.90;;;;;;5063236;28;20097;-69
2022/08/31 05:00:34;;;;;;;0.63;0.40;;;12.70;99.90;;;;;;5064750;28;20075;-69
2022/08/31 05:03:00;;;;;;;6.45;2.92;;;12.70;99.90;;;;;;5051001;28;20452;-70
2022/08/31 05:05:26;;;;;;;2.05;0.40;;;12.70;99.90;;;;;;5068553;28;20083;-69
2022/08/31 05:07:51;;;;;;;1.17;0.30;;;12.70;99.90;;;;;;5072141;28;20434;-69
2022/08/31 05:10:17;;;;;;;1.05;0.35;;;12.70;99.90;;;;;;5066547;28;20036;-70
2022/08/31 05:12:45;;;;;;;2.55;0.40;;;12.70;99.90;;;;;;5060028;28;20056;-69
2022/08/31 05:15:11;;;;;;;2.90;0.40;;;12.70;99.90;;;;;;5066503;28;20301;-69
2022/08/31 05:17:37;;;;;;;3.95;0.38;;;12.70;99.90;;;;;;5069607;28;20144;-69
2022/08/31 05:20:04;;;;;;;0.68;0.40;;;12.70;99.90;;;;;;5079855;28;20078;-69
2022/08/31 05:22:30;;;;;;;1.17;0.40;;;12.70;99.90;;;;;;5087630;28;20449;-70
2022/08/31 05:24:56;;;;;;;0.80;0.30;;;12.70;99.90;;;;;;5046218;28;20059;-69
2022/08/31 05:27:22;;;;;;;4.03;0.55;;;12.80;99.90;;;;;;5090600;28;20186;-70
2022/08/31 05:29:47;;;;;;;1.98;0.30;;;12.80;99.90;;;;;;5069376;28;20349;-70
2022/08/31 05:32:13;;;;;;;0.75;0.40;;;12.90;99.90;;;;;;5071902;28;20399;-70
2022/08/31 05:34:38;;;;;;;1.90;0.55;;;12.90;99.90;;;;;;5067649;28;20116;-70
2022/08/31 05:37:04;;;;;;;2.30;0.40;;;13.00;99.90;;;;;;5091147;28;20028;-70
2022/08/31 05:39:32;;;;;;;0.85;0.20;;;13.00;99.90;;;;;;5065907;28;20447;-70
2022/08/31 05:41:58;;;;;;;1.85;0.40;;;13.20;99.90;;;;;;5069615;28;20043;-70
2022/08/31 05:44:33;;;;;;;1.08;0.28;;;13.30;99.90;;;;;;5075361;28;20048;-69
2022/08/31 05:47:00;;;;;;;1.35;0.30;;;13.30;99.90;;;;;;5065921;28;20113;-69
2022/08/31 05:49:26;;;;;;;0.93;0.30;;;13.40;99.90;;;;;;5066757;28;20527;-70
2022/08/31 05:51:52;;;;;;;1.52;0.38;;;13.50;99.90;;;;;;5069843;28;20472;-70
2022/08/31 05:54:18;;;;;;;1.38;0.40;;;13.60;99.90;;;;;;5061836;28;20087;-70
2022/08/31 05:56:44;;;;;;;2.17;0.30;;;13.70;99.90;;;;;;5095398;28;20139;-70
2022/08/31 05:59:11;;;;;;;2.33;0.40;;;13.90;99.90;;;;;;5077534;28;20128;-70
2022/08/31 06:01:39;;;;;;;1.63;0.40;;;14.00;99.90;;;;;;5088786;28;20070;-70
2022/08/31 06:04:06;;;;;;;1.45;0.30;;;14.20;99.90;;;;;;5076590;28;20101;-70
2022/08/31 06:06:35;;;;;;;2.63;0.50;;;14.20;99.90;;;;;;5073291;28;20044;-71
2022/08/31 06:09:04;;;;;;;2.53;0.50;;;14.20;99.90;;;;;;5075473;28;20037;-68
2022/08/31 06:11:30;;;;;;;1.48;0.45;;;14.30;99.90;;;;;;5076434;28;20051;-70
2022/08/31 06:13:58;;;;;;;2.50;0.47;;;14.30;99.90;;;;;;5087945;28;20089;-69
2022/08/31 06:16:25;;;;;;;2.53;0.32;;;14.40;99.90;;;;;;5073533;28;20566;-69
2022/08/31 06:18:52;;;;;;;1.50;0.40;;;14.40;99.90;;;;;;5078713;28;20391;-69
2022/08/31 06:21:21;;;;;;;2.88;0.40;;;14.50;99.90;;;;;;5077887;28;20042;-69
2022/08/31 06:23:49;;;;;;;1.40;0.40;;;14.60;99.90;;;;;;5066237;28;20059;-70
2022/08/31 06:26:16;;;;;;;1.70;0.60;;;14.60;99.90;;;;;;5071445;28;20499;-70
2022/08/31 06:28:44;;;;;;;2.58;0.65;;;14.70;99.90;;;;;;5078631;28;20068;-70
2022/08/31 06:31:36;;;;;;;1.35;0.60;;;14.80;99.90;;;;;;5073919;28;20036;-69
2022/08/31 06:34:03;;;;;;;1.15;0.50;;;14.90;99.90;;;;;;5081234;28;20414;-69
2022/08/31 06:36:30;;;;;;;2.25;0.55;;;14.90;99.90;;;;;;5055493;28;20135;-69
2022/08/31 06:38:58;;;;;;;2.17;0.45;;;15.00;99.90;;;;;;5073798;28;20051;-69
2022/08/31 06:41:27;;;;;;;1.55;0.50;;;15.00;99.90;;;;;;5073628;28;20051;-70
2022/08/31 06:43:54;;;;;;;0.82;0.30;;;15.10;99.90;;;;;;5082187;28;20060;-70
2022/08/31 06:46:21;;;;;;;2.10;0.68;;;15.10;99.90;;;;;;5079630;28;20044;-69
2022/08/31 06:48:49;;;;;;;1.00;0.45;;;15.20;99.90;;;;;;5078379;28;20049;-70
2022/08/31 06:51:16;;;;;;;1.55;0.32;;;15.20;99.90;;;;;;5100615;28;20121;-69
2022/08/31 06:53:42;;;;;;;2.47;0.45;;;15.30;99.90;;;;;;5079053;28;22146;-70
2022/08/31 06:56:15;;;;;;;1.88;0.55;;;15.50;99.90;;;;;;5079650;28;20141;-69
2022/08/31 06:58:41;;;;;;;1.77;0.50;;;15.60;99.90;;;;;;5080185;28;20049;-68
2022/08/31 07:01:10;;;;;;;1.33;0.50;;;15.70;99.90;;;;;;5080596;28;20127;-69
2022/08/31 07:03:37;;;;;;;1.98;0.60;;;15.90;99.90;;;;;;5079810;28;20040;-69
2022/08/31 07:06:31;;;;;;;2.78;0.60;;;16.10;99.90;;;;;;5076815;28;20056;-68
2022/08/31 07:08:59;;;;;;;3.38;0.63;;;16.20;99.90;;;;;;5065374;28;20091;-69
2022/08/31 07:11:33;;;;;;;3.08;0.50;;;16.40;99.90;;;;;;5080482;28;20106;-69
2022/08/31 07:14:00;;;;;;;2.45;0.52;;;16.50;99.90;;;;;;5080836;28;20131;-69
2022/08/31 07:16:27;;;;;;;2.47;0.68;;;16.50;99.90;;;;;;5074618;28;20108;-69
2022/08/31 07:18:54;;;;;;;1.80;0.38;;;16.60;99.90;;;;;;5071174;28;20049;-70
2022/08/31 07:21:27;;;;;;;2.70;0.50;;;16.70;99.90;;;;;;5070293;28;20120;-69
2022/08/31 07:23:55;;;;;;;1.55;0.38;;;16.80;99.90;;;;;;5080658;28;20491;-70
2022/08/31 07:26:30;;;;;;;1.42;0.35;;;16.80;99.90;;;;;;5071261;28;20078;-69
2022/08/31 07:28:58;;;;;;;2.05;0.40;;;16.90;99.40;;;;;;5094424;28;20036;-68
2022/08/31 07:31:42;;;;;;;1.48;0.20;;;16.80;98.80;;;;;;5093434;28;20051;-68
2022/08/31 07:34:09;;;;;;;1.38;0.60;;;16.80;98.80;;;;;;5075095;28;20123;-68
2022/08/31 07:42:07;;;;;;;1.13;0.45;;;16.80;98.00;;;;;;5094094;28;20535;-69
2022/08/31 07:42:10;;;;;;;0.65;0.30;;;17.00;98.70;;;;;;5076654;28;20102;-68
2022/08/31 07:44:40;;;;;;;2.15;0.60;;;17.10;98.90;;;;;;5071945;28;20099;-68
2022/08/31 07:47:10;;;;;;;1.90;0.50;;;17.30;98.70;;;;;;5096645;28;20487;-69
2022/08/31 07:49:37;;;;;;;2.25;0.45;;;17.40;98.80;;;;;;5075483;28;20105;-69
2022/08/31 07:52:04;;;;;;;5.53;0.52;;;17.60;98.90;;;;;;5060791;28;20090;-68
2022/08/31 07:54:31;;;;;;;2.65;0.47;;;17.70;97.60;;;;;;5092430;28;20051;-67
2022/08/31 07:57:02;;;;;;;1.33;0.40;;;17.90;97.80;;;;;;5096112;28;20046;-69
2022/08/31 07:59:29;;;;;;;1.00;0.40;;;18.10;98.20;;;;;;5079539;28;20135;-69
2022/08/31 08:01:55;;;;;;;1.67;0.40;;;18.50;97.70;;;;;;5075732;28;20061;-68
2022/08/31 08:04:24;;;;;;;1.80;0.50;;;18.80;96.20;;;;;;5053394;28;20044;-69
2022/08/31 08:06:56;;;;;;;1.33;0.30;;;19.50;94.60;;;;;;5075824;28;20052;-69
2022/08/31 08:09:28;;;;;;;0.68;0.35;;;20.40;92.30;;;;;;5076487;28;20044;-69
2022/08/31 08:11:56;;;;;;;1.38;0.50;;;20.90;90.00;;;;;;5067376;28;20052;-69
2022/08/31 08:14:27;;;;;;;1.40;0.20;;;21.50;88.60;;;;;;5087030;28;20044;-70
2022/08/31 08:16:53;;;;;;;1.88;0.40;;;22.10;84.00;;;;;;5074441;28;20519;-69
2022/08/31 08:19:19;;;;;;;4.63;0.65;;;22.60;79.70;;;;;;5092393;28;20093;-69
2022/08/31 08:21:45;;;;;;;1.67;0.25;;;22.90;75.50;;;;;;5092567;28;20032;-70
2022/08/31 08:24:12;;;;;;;1.20;0.60;;;22.90;74.60;;;;;;5072544;28;20024;-70
2022/08/31 08:26:46;;;;;;;0.82;0.35;;;22.90;74.70;;;;;;5069012;28;20082;-69
2022/08/31 08:29:11;;;;;;;0.88;0.20;;;22.80;72.10;;;;;;5075141;28;20044;-70
2022/08/31 08:31:37;;;;;;;1.00;0.30;;;22.80;72.90;;;;;;5082636;28;20052;-69
2022/08/31 08:34:04;;;;;;;1.40;0.40;;;22.80;72.60;;;;;;5083997;28;20546;-69
2022/08/31 08:36:39;;;;;;;0.82;0.35;;;23.00;72.90;;;;;;5068939;28;20417;-67
2022/08/31 08:39:07;;;;;;;1.33;0.32;;;23.40;70.80;;;;;;5048119;28;20056;-66
2022/08/31 08:41:36;;;;;;;2.60;0.45;;;23.70;70.80;;;;;;5059745;28;20117;-67
2022/08/31 08:44:07;;;;;;;1.67;0.40;;;24.00;69.00;;;;;;5064147;28;20136;-67
2022/08/31 08:46:49;;;;;;;2.25;0.30;;;24.10;67.30;;;;;;5084054;28;20522;-68
2022/08/31 08:49:38;;;;;;;1.90;0.52;;;24.10;64.50;;;;;;5068714;28;20499;-67
2022/08/31 08:52:13;;;;;;;1.77;0.30;;;24.00;63.90;;;;;;5061761;28;20056;-67
2022/08/31 08:54:45;;;;;;;3.30;0.30;;;24.00;63.50;;;;;;5063440;28;20056;-67
2022/08/31 08:57:25;;;;;;;1.60;0.20;;;23.90;63.60;;;;;;5056245;28;20139;-66
2022/08/31 08:59:56;;;;;;;1.23;0.30;;;23.90;63.70;;;;;;5066588;28;20145;-67
2022/08/31 09:02:40;;;;;;;4.38;0.90;;;23.80;61.80;;;;;;5062454;28;20052;-67
2022/08/31 09:05:40;;;;;;;3.08;0.30;;;23.80;62.00;;;;;;5066416;28;20052;-66
2022/08/31 09:08:33;;;;;;;1.73;0.35;;;23.90;62.10;;;;;;5080827;28;20047;-67
2022/08/31 09:11:37;;;;;;;2.35;0.30;;;23.80;62.50;;;;;;5063408;28;20477;-66
2022/08/31 09:14:18;;;;;;;1.70;0.60;;;23.90;62.10;;;;;;5037307;28;20556;-65
2022/08/31 09:17:01;;;;;;;1.50;0.60;;;24.00;61.10;;;;;;5062050;28;20056;-67
2022/08/31 09:19:26;;;;;;;1.90;0.38;;;24.00;62.40;;;;;;5080726;28;20062;-67
2022/08/31 09:21:57;;;;;;;2.80;0.40;;;24.10;61.30;;;;;;5059743;28;20051;-68
2022/08/31 09:24:29;;;;;;;1.65;0.30;;;23.90;61.40;;;;;;5069229;28;20115;-67
2022/08/31 09:29:58;;;;;;;1.48;0.55;;;24.00;59.40;;;;;;5047828;28;20123;-67
2022/08/31 09:32:27;;;;;;;3.28;0.30;;;24.30;60.90;;;;;;5063057;28;20122;-68
2022/08/31 09:35:00;;;;;;;1.20;0.30;;;24.30;59.00;;;;;;5064026;28;20072;-66
2022/08/31 09:37:32;;;;;;;0.77;0.43;;;24.30;59.10;;;;;;5081677;28;20041;-68
2022/08/31 09:40:13;;;;;;;2.17;0.35;;;24.40;60.30;;;;;;5083980;28;20067;-67
2022/08/31 09:42:40;;;;;;;3.35;0.30;;;24.20;58.00;;;;;;5081102;28;20033;-66
2022/08/31 09:45:16;;;;;;;4.78;0.52;;;24.20;58.40;;;;;;5062311;28;20186;-67
2022/08/31 09:47:51;;;;;;;2.35;0.38;;;24.20;57.70;;;;;;5057914;28;20052;-67
2022/08/31 09:50:46;;;;;;;3.17;0.47;;;24.00;58.20;;;;;;5079151;28;20044;-66
2022/08/31 09:56:15;;;;;;;3.60;0.40;;;24.40;59.20;;;;;;5085194;28;20452;-66
2022/08/31 09:58:44;;;;;;;1.25;0.20;;;24.40;57.50;;;;;;5063329;28;20078;-67
2022/08/31 10:01:18;;;;;;;1.75;0.47;;;24.50;57.90;;;;;;5078645;28;20085;-67
2022/08/31 10:03:46;;;;;;;1.60;0.40;;;24.60;57.70;;;;;;5066556;28;20428;-66
2022/08/31 10:06:44;;;;;;;1.52;0.30;;;24.90;57.50;;;;;;5079029;28;20059;-67
2022/08/31 10:09:34;;;;;;;1.58;0.30;;;25.10;54.10;;;;;;5056511;28;20117;-67
2022/08/31 10:12:06;;;;;;;1.50;0.28;;;25.10;55.30;;;;;;5055789;28;20071;-68
2022/08/31 10:15:07;;;;;;;2.38;0.30;;;25.10;56.20;;;;;;5061296;28;20127;-67
2022/08/31 10:17:36;;;;;;;3.67;0.30;;;25.10;55.00;;;;;;5077479;28;20048;-67
2022/08/31 10:20:05;;;;;;;3.05;0.20;;;25.00;56.10;;;;;;5063941;28;20045;-66
2022/08/31 10:22:44;;;;;;;1.60;0.30;;;24.80;55.40;;;;;;5081814;28;20075;-67
2022/08/31 10:25:22;;;;;;;1.40;0.20;;;24.70;54.60;;;;;;5078530;28;20094;-67
2022/08/31 10:27:57;;;;;;;1.77;0.20;;;24.60;54.60;;;;;;5065622;28;20399;-67
2022/08/31 10:30:33;;;;;;;2.35;0.28;;;24.30;54.20;;;;;;5058798;28;20156;-67
2022/08/31 10:32:59;;;;;;;2.28;0.45;;;24.20;54.50;;;;;;5058857;28;20054;-68
2022/08/31 10:35:36;;;;;;;3.28;0.30;;;24.00;54.30;;;;;;5058102;28;20551;-67
2022/08/31 10:38:11;;;;;;;2.58;0.20;;;23.80;54.80;;;;;;5087402;28;20475;-67
2022/08/31 10:41:12;;;;;;;2.28;0.30;;;23.80;55.60;;;;;;5077144;28;20051;-67
2022/08/31 10:43:49;;;;;;;1.60;0.30;;;23.80;55.90;;;;;;5082314;28;20119;-67
2022/08/31 10:46:16;;;;;;;1.00;0.30;;;24.00;55.00;;;;;;5062315;28;20659;-65
2022/08/31 10:48:50;;;;;;;3.45;0.40;;;24.00;55.20;;;;;;5086132;28;20119;-67
2022/08/31 10:51:30;;;;;;;1.08;0.30;;;24.10;55.60;;;;;;5082726;28;20033;-66
2022/08/31 10:54:23;;;;;;;2.45;0.38;;;24.10;55.10;;;;;;5079635;28;20056;-67
2022/08/31 10:57:28;;;;;;;1.02;0.20;;;24.30;54.30;;;;;;5057270;28;20090;-67
2022/08/31 11:03:12;;;;;;;2.95;0.20;;;24.50;53.80;;;;;;5067061;28;20609;-68
2022/08/31 11:05:51;;;;;;;1.85;0.20;;;24.60;54.00;;;;;;5045939;28;20502;-68
2022/08/31 11:08:47;;;;;;;0.98;0.20;;;24.30;54.50;;;;;;5085907;28;20059;-68
2022/08/31 11:11:41;;;;;;;0.30;0.10;;;24.40;55.90;;;;;;5066600;28;20075;-68
2022/08/31 11:14:43;;;;;;;1.20;0.13;;;24.80;53.60;;;;;;5059723;28;20084;-67
2022/08/31 11:17:38;;;;;;;2.80;0.38;;;24.90;51.90;;;;;;5058041;28;20049;-68
2022/08/31 11:20:04;;;;;;;;;;;24.90;52.60;;;;;;5067039;28;20051;-67
2022/08/31 11:22:36;;;;;;;1.85;0.30;;;25.10;51.60;;;;;;5062760;28;20467;-68
2022/08/31 11:25:46;;;;;;;4.22;0.30;;;25.10;52.60;;;;;;5062056;28;20043;-67
2022/08/31 11:28:33;;;;;;;3.63;0.20;;;25.30;51.90;;;;;;5060875;28;20044;-67
2022/08/31 11:31:24;;;;;;;2.38;0.20;;;25.40;51.10;;;;;;5081312;28;20211;-67
2022/08/31 11:33:55;;;;;;;1.30;0.30;;;25.70;48.90;;;;;;5063609;28;20037;-67
2022/08/31 11:36:43;;;;;;;1.75;0.30;;;25.70;49.50;;;;;;5063800;28;20437;-68
2022/08/31 11:39:08;;;;;;;1.60;0.20;;;25.90;47.50;;;;;;5062899;28;20058;-65
2022/08/31 11:41:49;;;;;;;1.73;0.28;;;25.60;48.90;;;;;;5080735;28;20123;-66
2022/08/31 11:44:35;;;;;;;1.10;0.20;;;25.60;49.20;;;;;;5085102;28;20028;-66
2022/08/31 11:47:33;;;;;;;0.75;0.20;;;25.40;49.70;;;;;;5056773;28;20381;-67
2022/08/31 11:50:20;;;;;;;1.70;0.10;;;25.50;49.20;;;;;;5064576;28;20044;-65
2022/08/31 11:52:52;;;;;;;3.03;0.17;;;25.60;48.70;;;;;;5077609;28;20132;-66
2022/08/31 11:55:44;;;;;;;2.67;0.20;;;25.70;48.70;;;;;;5065272;28;20054;-65
2022/08/31 11:58:17;;;;;;;2.20;0.20;;;25.80;49.30;;;;;;5079363;28;20108;-66
2022/08/31 12:00:57;;;;;;;0.50;0.20;;;25.90;48.80;;;;;;5064851;28;20109;-67
2022/08/31 12:03:51;;;;;;;3.25;0.30;;;26.10;48.00;;;;;;5074958;28;20425;-66
2022/08/31 12:06:32;;;;;;;1.73;0.20;;;26.30;48.00;;;;;;5078188;28;20436;-67
2022/08/31 12:09:10;;;;;;;1.52;0.30;;;26.70;47.30;;;;;;5054063;28;20042;-67
2022/08/31 12:11:51;;;;;;;3.38;0.22;;;26.80;47.20;;;;;;5060216;28;20040;-67
2022/08/31 12:14:23;;;;;;;1.45;0.20;;;27.00;48.00;;;;;;5075567;28;20041;-66
2022/08/31 12:16:57;;;;;;;4.30;0.20;;;27.20;47.80;;;;;;5075622;28;20117;-67
2022/08/31 12:25:38;;;;;;;1.80;0.13;;;27.20;44.30;;;;;;5078554;28;20132;-67
2022/08/31 12:28:28;;;;;;;2.28;0.20;;;26.90;44.10;;;;;;5080784;28;20051;-67
2022/08/31 12:30:57;;;;;;;1.95;0.20;;;27.00;43.90;;;;;;5084891;28;20380;-66
2022/08/31 12:33:28;;;;;;;1.17;0.22;;;27.10;44.40;;;;;;5080284;28;20410;-66
2022/08/31 12:36:10;;;;;;;0.82;0.10;;;27.30;44.30;;;;;;5080466;28;20040;-67
2022/08/31 12:38:35;;;;;;;1.95;0.20;;;27.50;44.50;;;;;;5082303;28;20038;-65
2022/08/31 12:41:03;;;;;;;1.95;0.35;;;27.40;43.40;;;;;;5082579;28;20044;-65
2022/08/31 12:43:43;;;;;;;2.15;0.20;;;27.30;42.60;;;;;;5064648;28;20048;-65
2022/08/31 12:46:31;;;;;;;3.42;0.30;;;27.40;42.20;;;;;;5084762;28;20043;-66
2022/08/31 12:49:16;;;;;;;2.78;0.30;;;27.40;43.70;;;;;;5077638;28;20040;-65
2022/08/31 12:52:04;;;;;;;1.02;0.13;;;27.60;42.90;;;;;;5051028;28;20094;-65
2022/08/31 12:55:07;;;;;;;0.90;0.20;;;27.70;43.90;;;;;;5077355;28;20067;-67
2022/08/31 12:57:52;;;;;;;0.30;0.15;;;27.70;41.50;;;;;;5060348;28;20071;-62
2022/08/31 13:00:28;;;;;;;2.42;0.32;;;27.50;42.40;;;;;;5066058;28;20044;-61
2022/08/31 13:03:05;;;;;;;1.50;0.20;;;27.50;43.90;;;;;;5080789;28;20044;-64
2022/08/31 13:05:34;;;;;;;1.63;0.45;;;27.60;44.10;;;;;;5078915;28;20150;-65
2022/08/31 13:08:00;;;;;;;2.38;0.25;;;27.80;43.70;;;;;;5078585;28;20040;-63
2022/08/31 13:10:36;;;;;;;0.82;0.17;;;27.70;43.10;;;;;;5078113;28;20040;-63
2022/08/31 13:13:08;;;;;;;2.05;0.30;;;27.80;42.50;;;;;;5076720;28;20068;-63
2022/08/31 13:15:41;;;;;;;2.25;0.60;;;27.50;42.50;;;;;;5082575;28;20496;-62
2022/08/31 13:18:22;;;;;;;1.58;0.22;;;27.30;42.90;;;;;;5083189;28;20055;-62
2022/08/31 13:20:57;;;;;;;0.55;0.20;;;27.20;42.50;;;;;;5078742;28;20040;-64
2022/08/31 13:23:49;;;;;;;0.68;0.20;;;26.80;42.40;;;;;;5080024;28;20508;-63
2022/08/31 13:26:19;;;;;;;0.60;0.20;;;26.20;44.00;;;;;;5073871;28;20055;-63
2022/08/31 13:28:51;;;;;;;0.47;0.10;;;26.10;44.20;;;;;;5078634;28;20044;-63
2022/08/31 13:31:29;;;;;;;0.90;0.30;;;26.00;44.60;;;;;;5080700;28;20113;-66
2022/08/31 13:34:01;;;;;;;1.85;0.20;;;25.70;43.90;;;;;;5042262;28;20060;-67